Time;durP1;ratioP1;P1;durP2;ratioP2;P2;SDS_P1;SDS_P2;PMS_P1;PMS_P2;Temp;Humidity;BMP_temperature;BMP_pressure;BME280_temperature;BME280_humidity;BME280_pressure;Samples;Min_cycle;Max_cycle;Signal;HPM_P1;HPM_P2
2020/12/25 00:02:06;;;;;;;41.03;24.70;;;;;;;7.72;67.10;94863.72;5050783;28;20463;-62
2020/12/25 00:04:35;;;;;;;39.93;24.00;;;;;;;7.66;67.96;94859.47;5050421;28;20438;-60
2020/12/25 00:07:02;;;;;;;41.23;24.67;;;;;;;7.68;67.79;94857.41;5050906;28;20422;-61
2020/12/25 00:09:29;;;;;;;41.30;25.17;;;;;;;7.70;67.29;94857.97;5049988;28;20455;-60
2020/12/25 00:11:55;;;;;;;40.47;25.10;;;;;;;7.51;67.68;94846.19;5050839;28;20435;-61
2020/12/25 00:14:22;;;;;;;43.50;25.47;;;;;;;7.63;67.43;94849.47;5050102;28;20439;-61
2020/12/25 00:16:48;;;;;;;44.40;25.43;;;;;;;7.61;67.47;94857.53;5050399;28;20483;-62
2020/12/25 00:19:15;;;;;;;41.83;25.40;;;;;;;7.60;67.09;94850.75;5050389;28;20534;-61
2020/12/25 00:21:42;;;;;;;37.30;24.10;;;;;;;7.24;67.95;94860.84;5050224;28;21023;-61
2020/12/25 00:24:09;;;;;;;36.15;21.23;;;;;;;7.01;70.69;94851.34;5050453;28;21003;-60
2020/12/25 00:26:36;;;;;;;37.72;23.67;;;;;;;7.32;69.35;94863.09;5050942;28;20303;-61
2020/12/25 00:29:04;;;;;;;40.10;24.03;;;;;;;7.45;68.62;94862.75;5050755;28;20658;-63
2020/12/25 00:31:33;;;;;;;40.10;23.23;;;;;;;7.37;68.47;94868.38;5050856;28;20504;-61
2020/12/25 00:34:01;;;;;;;38.15;22.92;;;;;;;7.43;68.38;94877.84;5049907;28;20471;-61
2020/12/25 00:36:36;;;;;;;41.73;23.73;;;;;;;7.30;68.22;94867.75;5049782;28;20307;-61
2020/12/25 00:39:07;;;;;;;40.70;23.20;;;;;;;7.08;69.86;94878.81;5049362;28;20519;-61
2020/12/25 00:41:34;;;;;;;40.88;24.35;;;;;;;7.37;68.28;94876.19;5049934;28;20207;-61
2020/12/25 00:44:00;;;;;;;39.67;23.90;;;;;;;7.32;69.10;94863.09;5049515;28;20703;-61
2020/12/25 00:46:26;;;;;;;44.45;23.80;;;;;;;7.44;68.15;94855.97;5049838;28;20475;-61
2020/12/25 00:48:53;;;;;;;37.97;23.17;;;;;;;7.29;68.68;94858.31;5049215;28;20689;-60
2020/12/25 00:51:23;;;;;;;38.67;23.33;;;;;;;7.28;68.52;94859.38;5048433;28;20290;-62
2020/12/25 00:53:51;;;;;;;36.95;23.63;;;;;;;7.16;68.98;94870.63;5049168;28;20441;-61
2020/12/25 00:56:24;;;;;;;44.53;24.63;;;;;;;7.18;69.37;94879.00;5064696;28;20221;-61
2020/12/25 00:58:52;;;;;;;39.50;24.25;;;;;;;6.38;72.28;94887.09;5047719;28;20193;-61
2020/12/25 01:01:24;;;;;;;40.70;23.25;;;;;;;6.82;70.42;94895.03;5065139;28;20270;-61
2020/12/25 01:03:50;;;;;;;36.30;22.13;;;;;;;6.79;69.76;94874.66;5049627;28;20200;-61
2020/12/25 01:06:21;;;;;;;40.03;23.00;;;;;;;6.97;70.39;94882.25;5049968;28;20188;-62
2020/12/25 01:08:49;;;;;;;37.35;23.58;;;;;;;6.95;70.06;94879.09;5052575;28;20192;-60
2020/12/25 01:11:17;;;;;;;38.25;23.95;;;;;;;6.85;69.58;94867.72;5053026;28;20692;-60
2020/12/25 01:13:44;;;;;;;39.58;23.73;;;;;;;6.89;70.04;94864.44;5049174;28;20204;-62
2020/12/25 01:16:15;;;;;;;39.05;23.13;;;;;;;6.93;69.85;94867.34;5049746;28;20236;-61
2020/12/25 01:18:43;;;;;;;39.50;23.38;;;;;;;6.94;69.70;94872.31;5048745;28;20203;-61
2020/12/25 01:21:11;;;;;;;40.72;24.30;;;;;;;6.14;72.22;94855.13;5049499;28;20200;-61
2020/12/25 01:23:38;;;;;;;36.28;22.40;;;;;;;6.50;71.75;94860.03;5048696;28;20781;-61
2020/12/25 01:26:05;;;;;;;35.08;22.80;;;;;;;6.63;70.77;94836.31;5049470;28;20230;-60
2020/12/25 01:28:33;;;;;;;42.72;24.10;;;;;;;6.81;70.26;94851.75;5049129;28;20264;-62
2020/12/25 01:31:02;;;;;;;36.47;23.27;;;;;;;6.88;69.89;94847.19;5048972;28;20204;-60
2020/12/25 01:33:35;;;;;;;37.03;22.40;;;;;;;6.69;70.38;94850.22;5048886;28;20569;-60
2020/12/25 01:36:03;;;;;;;38.97;22.83;;;;;;;6.01;73.17;94847.56;5049145;28;20224;-60
2020/12/25 01:38:30;;;;;;;36.83;23.45;;;;;;;6.40;72.19;94849.44;5049195;28;20208;-60
2020/12/25 01:40:56;;;;;;;36.33;22.52;;;;;;;6.57;70.71;94836.47;5049022;28;20575;-61
2020/12/25 01:43:24;;;;;;;37.92;21.92;;;;;;;6.40;70.99;94836.41;5048977;28;20219;-61
2020/12/25 01:45:51;;;;;;;35.28;21.77;;;;;;;6.58;71.05;94831.03;5048699;28;20263;-61
2020/12/25 01:48:19;;;;;;;36.45;21.20;;;;;;;6.71;70.45;94841.19;5052059;28;20201;-61
2020/12/25 01:50:46;;;;;;;40.60;21.92;;;;;;;6.80;69.84;94834.56;5053027;28;20228;-61
2020/12/25 01:53:16;;;;;;;34.55;21.20;;;;;;;6.81;69.89;94830.13;5053081;28;20219;-62
2020/12/25 01:55:43;;;;;;;36.45;21.23;;;;;;;6.40;71.01;94833.81;5052829;28;20224;-62
2020/12/25 01:58:10;;;;;;;35.80;20.02;;;;;;;6.72;71.15;94828.94;5053048;28;20254;-62
2020/12/25 02:00:37;;;;;;;35.55;21.15;;;;;;;6.75;70.56;94837.06;5052069;28;20686;-60
2020/12/25 02:03:03;;;;;;;35.92;22.58;;;;;;;6.44;71.34;94840.13;5053055;28;20192;-61
2020/12/25 02:05:32;;;;;;;34.63;21.52;;;;;;;6.27;71.88;94831.47;5052380;28;20216;-61
2020/12/25 02:08:00;;;;;;;34.08;20.13;;;;;;;6.56;71.32;94832.28;5052867;28;20196;-61
2020/12/25 02:10:27;;;;;;;34.90;20.85;;;;;;;6.25;71.97;94819.69;5052095;28;20200;-62
2020/12/25 02:12:53;;;;;;;35.30;21.33;;;;;;;6.48;70.69;94836.03;5052855;28;20599;-61
2020/12/25 02:15:20;;;;;;;32.22;19.88;;;;;;;6.62;70.28;94832.16;5052202;28;20251;-61
2020/12/25 02:17:47;;;;;;;34.83;20.33;;;;;;;6.74;69.79;94819.88;5052607;28;20193;-60
2020/12/25 02:20:14;;;;;;;33.03;20.27;;;;;;;6.80;70.16;94818.94;5052232;28;20257;-61
2020/12/25 02:22:41;;;;;;;33.78;20.30;;;;;;;6.81;69.21;94820.50;5052294;28;20276;-61
2020/12/25 02:25:08;;;;;;;30.60;20.10;;;;;;;6.69;69.20;94798.16;5052292;28;20255;-61
2020/12/25 02:27:36;;;;;;;29.95;19.25;;;;;;;6.98;68.83;94823.94;5052854;28;20847;-61
2020/12/25 02:30:04;;;;;;;30.88;19.88;;;;;;;6.92;69.29;94821.47;5051985;28;20197;-62
2020/12/25 02:32:32;;;;;;;31.70;19.60;;;;;;;6.68;69.37;94825.22;5052395;28;20567;-62
2020/12/25 02:35:16;;;;;;;33.67;19.77;;;;;;;6.54;71.29;94826.50;5051734;28;20256;-61
2020/12/25 02:37:42;;;;;;;28.77;19.90;;;;;;;6.43;70.64;94832.53;5052473;28;20204;-61
2020/12/25 02:40:10;;;;;;;34.75;20.75;;;;;;;6.44;70.62;94832.31;5051836;28;20258;-60
2020/12/25 02:42:37;;;;;;;31.13;20.05;;;;;;;6.45;70.56;94831.28;5056722;28;20207;-61
2020/12/25 02:45:04;;;;;;;33.58;21.67;;;;;;;6.63;70.32;94818.09;5056239;28;20200;-61
2020/12/25 02:47:31;;;;;;;32.63;20.30;;;;;;;6.46;70.34;94816.47;5052826;28;20216;-61
2020/12/25 02:49:59;;;;;;;31.20;19.42;;;;;;;6.23;70.80;94806.91;5052151;28;20581;-61
2020/12/25 02:52:25;;;;;;;33.88;20.73;;;;;;;6.35;70.96;94810.25;5052009;28;20318;-61
2020/12/25 02:54:52;;;;;;;30.52;18.88;;;;;;;6.24;70.72;94810.31;5051420;28;20562;-60
2020/12/25 02:57:19;;;;;;;37.22;19.70;;;;;;;6.23;70.93;94801.72;5051991;28;20196;-61
2020/12/25 02:59:45;;;;;;;36.33;21.33;;;;;;;6.00;71.57;94791.38;5050937;28;20276;-60
2020/12/25 03:02:15;;;;;;;33.38;20.27;;;;;;;5.74;72.71;94799.63;5052003;28;20223;-61
2020/12/25 03:04:42;;;;;;;39.55;22.42;;;;;;;5.93;72.30;94780.31;5051091;28;20287;-61
2020/12/25 03:07:10;;;;;;;36.42;21.73;;;;;;;6.14;72.04;94792.69;5051645;28;20737;-62
2020/12/25 03:09:37;;;;;;;30.52;20.33;;;;;;;6.26;70.95;94796.03;5051577;28;20193;-61
2020/12/25 03:12:03;;;;;;;37.58;20.98;;;;;;;6.30;70.89;94791.97;5052060;28;20228;-61
2020/12/25 03:14:29;;;;;;;35.25;21.02;;;;;;;6.06;71.71;94774.81;5051091;28;20196;-60
2020/12/25 03:16:56;;;;;;;34.65;20.65;;;;;;;6.21;70.74;94785.53;5051629;28;20228;-61
2020/12/25 03:19:22;;;;;;;35.88;21.48;;;;;;;6.09;71.34;94793.38;5051077;28;20323;-61
2020/12/25 03:21:48;;;;;;;33.05;20.88;;;;;;;6.21;71.07;94787.34;5051679;28;20272;-61
2020/12/25 03:24:15;;;;;;;36.55;20.92;;;;;;;6.14;71.43;94777.88;5050831;28;20283;-62
2020/12/25 03:26:41;;;;;;;35.17;22.30;;;;;;;5.53;73.65;94805.41;5051377;28;20192;-61
2020/12/25 03:29:08;;;;;;;36.25;22.27;;;;;;;5.72;73.48;94796.47;5051267;28;20227;-61
2020/12/25 03:31:35;;;;;;;37.85;22.60;;;;;;;5.75;73.19;94798.59;5051160;28;20264;-62
2020/12/25 03:34:01;;;;;;;41.17;25.40;;;;;;;5.95;72.67;94788.66;5050365;28;20240;-60
2020/12/25 03:36:29;;;;;;;40.65;23.08;;;;;;;6.07;71.87;94786.81;5051161;28;20212;-60
2020/12/25 03:38:56;;;;;;;35.20;22.23;;;;;;;6.09;71.55;94790.00;5050942;28;20223;-61
2020/12/25 03:41:22;;;;;;;37.38;23.33;;;;;;;5.85;71.81;94788.44;5051105;28;20193;-60
2020/12/25 03:43:48;;;;;;;40.13;24.52;;;;;;;5.68;72.36;94782.31;5050297;28;20299;-60
2020/12/25 03:46:15;;;;;;;43.65;25.88;;;;;;;5.85;72.74;94772.84;5050785;28;20334;-61
2020/12/25 03:48:41;;;;;;;40.58;24.65;;;;;;;6.00;71.77;94775.78;5050608;28;20195;-61
2020/12/25 03:51:08;;;;;;;42.55;24.60;;;;;;;5.79;72.12;94786.72;5051319;28;20693;-61
2020/12/25 03:53:35;;;;;;;41.47;24.90;;;;;;;5.92;71.63;94778.72;5050368;28;20203;-61
2020/12/25 03:56:01;;;;;;;41.00;24.25;;;;;;;5.83;71.59;94772.28;5050685;28;20725;-61
2020/12/25 03:58:27;;;;;;;39.80;24.00;;;;;;;5.92;71.45;94763.09;5050963;28;20639;-61
2020/12/25 04:00:54;;;;;;;38.70;23.98;;;;;;;6.02;71.06;94771.13;5050446;28;20681;-61
2020/12/25 04:03:21;;;;;;;37.72;22.30;;;;;;;6.04;70.36;94764.66;5050927;28;20642;-60
2020/12/25 04:05:47;;;;;;;40.47;24.85;;;;;;;5.97;70.68;94760.59;5050699;28;20193;-60
2020/12/25 04:08:14;;;;;;;39.00;23.75;;;;;;;5.99;70.48;94763.78;5053281;28;20610;-60
2020/12/25 04:10:40;;;;;;;43.03;25.52;;;;;;;6.08;70.40;94763.19;5053076;28;20196;-61
2020/12/25 04:13:07;;;;;;;36.72;22.98;;;;;;;6.15;70.76;94763.03;5051264;28;20200;-61
2020/12/25 04:15:33;;;;;;;37.33;22.63;;;;;;;6.05;70.91;94768.06;5050201;28;20220;-62
2020/12/25 04:17:59;;;;;;;35.17;21.92;;;;;;;6.18;70.95;94773.00;5053105;28;20212;-59
2020/12/25 04:20:26;;;;;;;38.13;24.58;;;;;;;5.87;70.73;94782.00;5050242;28;20685;-60
2020/12/25 04:22:52;;;;;;;38.45;24.65;;;;;;;5.96;70.24;94777.25;5050434;28;20201;-60
2020/12/25 04:25:19;;;;;;;40.20;24.83;;;;;;;5.90;70.23;94770.34;5049543;28;20200;-61
2020/12/25 04:27:45;;;;;;;41.65;25.75;;;;;;;5.75;70.00;94783.78;5050362;28;20287;-61
2020/12/25 04:30:12;;;;;;;48.58;29.27;;;;;;;5.78;69.98;94787.75;5049816;28;20191;-60
2020/12/25 04:32:39;;;;;;;56.03;33.92;;;;;;;5.64;70.16;94781.22;5050417;28;20207;-60
2020/12/25 04:35:06;;;;;;;51.17;30.83;;;;;;;5.77;69.70;94778.34;5049251;28;20702;-61
2020/12/25 04:37:32;;;;;;;55.00;31.60;;;;;;;5.67;69.83;94791.16;5049840;28;20200;-60
2020/12/25 04:39:59;;;;;;;48.83;28.92;;;;;;;5.32;71.09;94787.75;5049907;28;20287;-61
2020/12/25 04:42:26;;;;;;;52.33;32.13;;;;;;;5.48;70.59;94793.06;5049869;28;20296;-61
2020/12/25 04:44:53;;;;;;;53.28;30.70;;;;;;;5.44;71.07;94799.72;5049395;28;20189;-61
2020/12/25 04:47:20;;;;;;;52.22;30.48;;;;;;;5.50;70.89;94779.84;5049869;28;20571;-60
2020/12/25 04:49:48;;;;;;;55.45;31.95;;;;;;;5.53;70.32;94795.78;5049517;28;20207;-60
2020/12/25 04:52:14;;;;;;;49.60;30.13;;;;;;;5.64;70.19;94802.78;5049714;28;20195;-60
2020/12/25 04:54:41;;;;;;;49.55;28.77;;;;;;;5.64;70.66;94786.41;5049021;28;20219;-61
2020/12/25 04:57:08;;;;;;;49.22;29.50;;;;;;;5.51;71.04;94795.22;5049749;28;20603;-60
2020/12/25 04:59:35;;;;;;;44.72;27.67;;;;;;;5.68;70.70;94792.72;5049522;28;20197;-61
2020/12/25 05:02:04;;;;;;;46.28;28.02;;;;;;;5.55;70.51;94783.34;5049816;28;20275;-61
2020/12/25 05:04:30;;;;;;;47.92;28.83;;;;;;;5.43;70.74;94799.97;5049408;28;20200;-61
2020/12/25 05:07:00;;;;;;;48.25;28.35;;;;;;;5.39;70.91;94788.44;5049747;28;20677;-60
2020/12/25 05:09:27;;;;;;;49.30;29.13;;;;;;;5.42;70.58;94804.38;5050134;28;20188;-61
2020/12/25 05:11:57;;;;;;;42.95;27.15;;;;;;;5.44;71.12;94806.75;5049647;28;20204;-61
2020/12/25 05:14:25;;;;;;;51.30;28.40;;;;;;;5.37;71.04;94811.25;5049425;28;20197;-61
2020/12/25 05:16:57;;;;;;;46.60;26.48;;;;;;;5.37;71.25;94806.06;5049754;28;20212;-61
2020/12/25 05:19:27;;;;;;;46.53;26.13;;;;;;;5.39;71.19;94809.22;5049159;28;20734;-60
2020/12/25 05:21:59;;;;;;;47.67;26.30;;;;;;;5.03;72.35;94811.00;5049374;28;20199;-60
2020/12/25 05:24:26;;;;;;;45.15;27.95;;;;;;;4.95;73.71;94803.53;5048711;28;20195;-60
2020/12/25 05:26:55;;;;;;;41.47;24.63;;;;;;;5.26;73.05;94810.22;5049809;28;20192;-61
2020/12/25 05:29:26;;;;;;;45.83;25.77;;;;;;;5.21;72.90;94809.31;5049001;28;20192;-62
2020/12/25 05:31:54;;;;;;;45.38;25.17;;;;;;;5.29;71.96;94803.81;5049169;28;20189;-61
2020/12/25 05:34:23;;;;;;;44.03;24.80;;;;;;;5.31;72.13;94809.56;5048182;28;20235;-61
2020/12/25 05:37:06;;;;;;;43.83;23.70;;;;;;;5.42;71.71;94788.00;5049559;28;20592;-61
2020/12/25 05:39:41;;;;;;;41.42;24.75;;;;;;;5.18;72.16;94796.78;5048654;28;20631;-62
2020/12/25 05:42:08;;;;;;;38.10;21.67;;;;;;;5.23;73.26;94784.72;5048961;28;20559;-60
2020/12/25 05:44:40;;;;;;;34.20;20.35;;;;;;;5.23;72.92;94783.91;5048814;28;20355;-61
2020/12/25 05:47:08;;;;;;;33.25;19.02;;;;;;;5.29;72.49;94781.22;5048860;28;20234;-62
2020/12/25 05:49:34;;;;;;;34.83;20.05;;;;;;;5.42;71.79;94778.38;5050960;28;20208;-60
2020/12/25 05:52:01;;;;;;;31.08;18.63;;;;;;;5.37;72.47;94795.66;5053986;28;20235;-62
2020/12/25 05:54:28;;;;;;;32.60;19.63;;;;;;;5.53;71.82;94795.00;5048790;28;20206;-62
2020/12/25 05:56:57;;;;;;;26.92;16.52;;;;;;;5.64;72.01;94805.38;5048784;28;20239;-61
2020/12/25 05:59:25;;;;;;;26.88;16.95;;;;;;;5.82;71.79;94809.69;5048503;28;20234;-60
2020/12/25 06:01:56;;;;;;;31.27;17.92;;;;;;;5.69;72.32;94799.53;5049334;28;20197;-62
2020/12/25 06:04:27;;;;;;;29.02;17.33;;;;;;;5.83;71.89;94800.88;5048121;28;20670;-61
2020/12/25 06:06:54;;;;;;;26.13;15.73;;;;;;;5.66;72.67;94810.34;5048998;28;20196;-61
2020/12/25 06:09:28;;;;;;;28.23;17.23;;;;;;;5.75;72.30;94819.38;5048424;28;20192;-61
2020/12/25 06:11:55;;;;;;;33.50;18.90;;;;;;;5.60;71.07;94821.69;5048971;28;20540;-61
2020/12/25 06:14:22;;;;;;;30.80;19.88;;;;;;;5.48;71.11;94823.47;5048285;28;20212;-62
2020/12/25 06:17:09;;;;;;;35.33;20.33;;;;;;;5.40;71.21;94831.59;5048680;28;20268;-61
2020/12/25 06:19:46;;;;;;;42.00;22.52;;;;;;;5.55;70.84;94826.72;5048632;28;20200;-62
2020/12/25 06:22:21;;;;;;;67.57;41.08;;;;;;;5.23;71.38;94820.28;5048909;28;20214;-61
2020/12/25 06:24:51;;;;;;;104.47;61.45;;;;;;;5.44;71.43;94843.13;5048200;28;20242;-61
2020/12/25 06:27:18;;;;;;;94.05;55.15;;;;;;;5.53;71.30;94834.00;5048624;28;20623;-60
2020/12/25 06:29:44;;;;;;;87.50;53.88;;;;;;;5.56;71.25;94830.94;5048255;28;20299;-61
2020/12/25 06:32:12;;;;;;;91.90;53.30;;;;;;;5.62;70.89;94835.25;5048882;28;20200;-62
2020/12/25 06:34:49;;;;;;;96.80;56.35;;;;;;;5.65;70.99;94839.97;5049602;28;20315;-61
2020/12/25 06:37:16;;;;;;;81.25;49.95;;;;;;;5.75;70.64;94851.38;5052423;28;20309;-60
2020/12/25 06:39:54;;;;;;;80.82;48.78;;;;;;;5.86;70.29;94855.03;5051833;28;20204;-61
2020/12/25 06:42:32;;;;;;;78.78;45.22;;;;;;;5.83;70.84;94855.47;5052245;28;20211;-60
2020/12/25 06:45:07;;;;;;;78.32;44.17;;;;;;;5.80;70.79;94854.09;5051573;28;20196;-61
2020/12/25 06:47:36;;;;;;;61.70;36.70;;;;;;;5.74;71.23;94859.41;5052158;28;20188;-62
2020/12/25 06:50:09;;;;;;;48.15;31.05;;;;;;;5.55;71.80;94845.72;5051394;28;20618;-60
2020/12/25 06:52:56;;;;;;;53.47;31.70;;;;;;;5.57;72.00;94853.28;5052132;28;20212;-62
2020/12/25 06:55:24;;;;;;;44.80;26.50;;;;;;;5.59;72.13;94846.06;5051822;28;20201;-61
2020/12/25 06:57:54;;;;;;;42.30;24.23;;;;;;;5.58;72.74;94854.88;5051083;28;20291;-60
2020/12/25 07:00:21;;;;;;;43.88;23.52;;;;;;;5.60;72.76;94832.84;5029479;28;20255;-60
2020/12/25 07:02:49;;;;;;;43.78;24.92;;;;;;;5.46;72.88;94820.28;5031517;28;20201;-62
2020/12/25 07:05:15;;;;;;;38.75;22.25;;;;;;;5.68;72.76;94844.72;5031131;28;20221;-62
2020/12/25 07:07:42;;;;;;;37.83;23.33;;;;;;;5.85;72.48;94845.66;5031684;28;20274;-62
2020/12/25 07:10:12;;;;;;;45.28;26.80;;;;;;;6.01;71.79;94850.16;5031203;28;20191;-62
2020/12/25 07:12:39;;;;;;;46.85;29.45;;;;;;;6.10;71.78;94838.38;5031493;28;20204;-62
2020/12/25 07:15:07;;;;;;;76.55;43.42;;;;;;;5.95;71.46;94825.06;5030776;28;20201;-62
2020/12/25 07:17:35;;;;;;;75.35;43.33;;;;;;;6.02;70.25;94851.75;5031551;28;20210;-62
2020/12/25 07:20:08;;;;;;;64.97;38.88;;;;;;;6.01;70.18;94845.75;5036997;28;21055;-61
2020/12/25 07:22:35;;;;;;;54.55;33.67;;;;;;;5.86;70.90;94842.03;5050366;28;20276;-62
2020/12/25 07:25:08;;;;;;;45.08;27.92;;;;;;;5.93;70.90;94840.13;5055236;28;20227;-60
2020/12/25 07:27:35;;;;;;;44.53;25.35;;;;;;;6.12;71.26;94841.56;5046967;28;20271;-61
2020/12/25 07:30:02;;;;;;;54.05;31.48;;;;;;;6.26;70.11;94829.09;5050203;28;20276;-61
2020/12/25 07:32:30;;;;;;;49.97;28.30;;;;;;;6.22;71.84;94823.56;5051003;28;20208;-61
2020/12/25 07:35:03;;;;;;;126.53;81.55;;;;;;;6.34;69.91;94829.50;5050126;28;20233;-62
2020/12/25 07:37:29;;;;;;;34.17;21.02;;;;;;;6.43;69.79;94833.34;5049116;28;20213;-61
2020/12/25 07:39:56;;;;;;;35.05;20.45;;;;;;;6.27;68.41;94847.06;5050410;28;20299;-60
2020/12/25 07:42:23;;;;;;;33.08;20.55;;;;;;;6.20;69.81;94864.63;5050689;28;20576;-61
2020/12/25 07:44:49;;;;;;;34.53;18.55;;;;;;;6.27;69.32;94849.69;5049461;28;20207;-62
2020/12/25 07:47:15;;;;;;;32.13;19.55;;;;;;;6.24;69.44;94870.16;5050485;28;20960;-62
2020/12/25 07:49:44;;;;;;;32.35;19.80;;;;;;;6.44;69.04;94863.53;5050207;28;20200;-61
2020/12/25 07:52:11;;;;;;;32.05;18.92;;;;;;;6.44;68.84;94858.31;5049628;28;20212;-62
2020/12/25 07:54:37;;;;;;;34.67;20.48;;;;;;;5.99;69.68;94862.59;5049595;28;20319;-62
2020/12/25 07:57:06;;;;;;;30.83;20.27;;;;;;;6.27;69.97;94859.28;5050432;28;20274;-64
2020/12/25 07:59:35;;;;;;;34.63;20.55;;;;;;;6.55;69.27;94857.50;5049472;28;20666;-64
2020/12/25 08:02:01;;;;;;;57.75;35.13;;;;;;;6.78;69.39;94852.25;5045748;28;20203;-63
2020/12/25 08:04:28;;;;;;;32.78;20.55;;;;;;;6.80;69.49;94854.59;5048073;28;20189;-64
2020/12/25 08:06:54;;;;;;;71.18;45.95;;;;;;;6.98;73.26;94855.22;5049698;28;20196;-63
2020/12/25 08:09:23;;;;;;;40.78;25.10;;;;;;;6.94;71.32;94850.69;5048456;28;20196;-64
2020/12/25 08:11:51;;;;;;;37.47;22.75;;;;;;;6.89;69.12;94863.63;5049834;28;20208;-63
2020/12/25 08:14:21;;;;;;;31.45;20.33;;;;;;;6.89;69.26;94871.44;5048293;28;20203;-64
2020/12/25 08:16:50;;;;;;;40.30;21.30;;;;;;;6.83;69.23;94862.75;5049995;28;20323;-63
2020/12/25 08:19:17;;;;;;;32.53;20.58;;;;;;;6.63;69.39;94858.97;5049486;28;20698;-63
2020/12/25 08:21:44;;;;;;;36.63;22.58;;;;;;;6.76;68.97;94859.50;5049928;28;20212;-64
2020/12/25 08:24:10;;;;;;;37.75;22.05;;;;;;;6.80;68.91;94858.00;5048696;28;20193;-61
2020/12/25 08:26:41;;;;;;;34.80;21.55;;;;;;;6.67;69.09;94862.69;5049469;28;20211;-62
2020/12/25 08:29:08;;;;;;;33.42;19.88;;;;;;;6.80;68.96;94850.19;5046060;28;20652;-61
2020/12/25 08:31:35;;;;;;;34.85;21.05;;;;;;;7.08;69.21;94837.13;5029861;28;20276;-62
2020/12/25 08:34:01;;;;;;;40.10;22.25;;;;;;;7.25;68.89;94854.59;5028638;28;20295;-62
2020/12/25 08:36:28;;;;;;;33.15;19.73;;;;;;;7.22;68.77;94859.25;5029285;28;20218;-62
2020/12/25 08:39:30;;;;;;;29.48;18.63;;;;;;;7.10;68.95;94835.09;5038066;28;20200;-62
2020/12/25 08:41:58;;;;;;;31.88;19.65;;;;;;;7.40;68.38;94844.44;5048694;28;20220;-63
2020/12/25 08:44:24;;;;;;;33.57;20.73;;;;;;;7.34;68.27;94845.38;5048727;28;20203;-62
2020/12/25 08:47:08;;;;;;;32.42;20.42;;;;;;;7.50;69.07;94828.97;5049027;28;20458;-63
2020/12/25 08:49:34;;;;;;;35.35;20.85;;;;;;;7.67;68.60;94856.59;5028865;28;20562;-63
2020/12/25 08:52:01;;;;;;;94.03;54.13;;;;;;;7.69;68.21;94853.75;5029061;28;20219;-64
2020/12/25 08:54:29;;;;;;;69.00;44.72;;;;;;;7.85;67.82;94845.91;5028964;28;20205;-64
2020/12/25 08:56:56;;;;;;;39.65;24.60;;;;;;;8.10;67.39;94845.50;5038112;28;20235;-63
2020/12/25 08:59:22;;;;;;;38.13;24.42;;;;;;;8.22;67.05;94848.78;5048718;28;20192;-62
2020/12/25 09:01:50;;;;;;;41.50;24.63;;;;;;;8.27;66.77;94833.19;5049032;28;20212;-62
2020/12/25 09:04:20;;;;;;;38.53;24.83;;;;;;;8.12;66.22;94831.16;5048492;28;20494;-63
2020/12/25 09:06:50;;;;;;;39.20;24.00;;;;;;;8.33;66.04;94806.13;5048581;28;20188;-63
2020/12/25 09:09:28;;;;;;;37.67;24.37;;;;;;;8.34;66.68;94804.31;5048503;28;20193;-61
2020/12/25 09:11:54;;;;;;;35.97;22.40;;;;;;;8.51;65.77;94800.59;5048041;28;20972;-66
2020/12/25 09:14:20;;;;;;;36.83;22.60;;;;;;;8.54;65.97;94800.09;5047970;28;20439;-64
2020/12/25 09:16:47;;;;;;;36.53;21.17;;;;;;;8.53;66.43;94798.53;5048515;28;20484;-63
2020/12/25 09:19:13;;;;;;;32.23;22.10;;;;;;;8.51;66.11;94798.00;5048088;28;20846;-62
2020/12/25 09:21:40;;;;;;;33.37;22.63;;;;;;;8.77;65.77;94786.78;5048690;28;20450;-62
2020/12/25 09:24:07;;;;;;;29.63;20.07;;;;;;;9.02;65.60;94781.78;5048042;28;20451;-61
2020/12/25 09:26:33;;;;;;;34.43;20.40;;;;;;;9.11;65.14;94795.97;5047736;28;20439;-62
2020/12/25 09:29:00;;;;;;;33.70;20.23;;;;;;;8.81;63.98;94792.31;5048199;28;20443;-62
2020/12/25 09:31:26;;;;;;;37.57;22.00;;;;;;;8.71;64.64;94769.47;5048760;28;20909;-62
2020/12/25 09:33:52;;;;;;;37.27;21.57;;;;;;;8.74;65.25;94753.28;5047598;28;20984;-63
2020/12/25 09:36:19;;;;;;;33.00;20.77;;;;;;;8.94;65.52;94763.16;5036476;28;20472;-62
2020/12/25 09:38:46;;;;;;;32.00;21.37;;;;;;;8.74;64.42;94771.59;5028749;28;20446;-60
2020/12/25 09:41:13;;;;;;;35.47;21.53;;;;;;;8.75;64.92;94754.88;5028551;28;20444;-62
2020/12/25 09:43:41;;;;;;;32.87;22.07;;;;;;;9.00;65.26;94747.28;5028410;28;20941;-67
2020/12/25 09:46:09;;;;;;;31.20;21.40;;;;;;;9.26;64.52;94755.31;5028739;28;20439;-62
2020/12/25 09:48:35;;;;;;;46.73;29.37;;;;;;;9.30;64.28;94751.16;5029818;28;20452;-64
2020/12/25 09:51:02;;;;;;;57.63;32.57;;;;;;;9.49;64.21;94739.28;5030670;28;20436;-63
2020/12/25 09:53:30;;;;;;;32.43;21.10;;;;;;;9.56;62.59;94755.53;5030021;28;20444;-65
2020/12/25 09:55:56;;;;;;;33.43;20.37;;;;;;;9.48;62.65;94740.31;5027386;28;20885;-63
2020/12/25 09:58:22;;;;;;;36.27;21.07;;;;;;;9.61;63.54;94721.56;5028971;28;20451;-61
2020/12/25 10:00:49;;;;;;;29.83;20.57;;;;;;;9.73;63.25;94738.63;5027721;28;20824;-62
2020/12/25 10:03:15;;;;;;;34.70;21.50;;;;;;;9.88;62.18;94730.88;5028237;28;20533;-62
2020/12/25 10:05:42;;;;;;;35.50;21.20;;;;;;;9.85;61.99;94707.03;5028031;28;20526;-62
2020/12/25 10:08:08;;;;;;;33.93;21.13;;;;;;;9.85;62.39;94712.28;5028083;28;20539;-64
2020/12/25 10:10:34;;;;;;;31.10;21.07;;;;;;;10.06;62.70;94719.16;5031043;28;20432;-63
2020/12/25 10:13:01;;;;;;;34.97;21.23;;;;;;;9.98;61.57;94698.72;5031721;28;20450;-62
2020/12/25 10:15:27;;;;;;;32.53;20.97;;;;;;;10.12;60.80;94707.69;5031236;28;20447;-62
2020/12/25 10:17:53;;;;;;;30.23;19.53;;;;;;;10.18;61.06;94704.06;5032511;28;20534;-62
2020/12/25 10:20:20;;;;;;;32.83;19.93;;;;;;;10.26;61.42;94693.06;5031788;28;20831;-62
2020/12/25 10:22:46;;;;;;;36.33;20.07;;;;;;;10.35;60.85;94696.78;5031649;28;20443;-62
2020/12/25 10:25:13;;;;;;;31.63;19.20;;;;;;;10.42;60.69;94681.59;5031071;28;20444;-63
2020/12/25 10:27:41;;;;;;;33.27;19.57;;;;;;;10.56;60.95;94687.13;5031455;28;20823;-64
2020/12/25 10:30:09;;;;;;;33.83;20.87;;;;;;;10.63;60.88;94683.22;5035590;28;20424;-65
2020/12/25 10:32:39;;;;;;;64.37;33.73;;;;;;;10.77;60.93;94679.03;5032155;28;20521;-63
2020/12/25 10:35:07;;;;;;;50.80;32.17;;;;;;;10.79;60.71;94679.56;5031818;28;20486;-63
2020/12/25 10:37:36;;;;;;;30.23;19.67;;;;;;;10.69;59.70;94676.91;5031832;28;20483;-63
2020/12/25 10:40:11;;;;;;;33.93;20.30;;;;;;;10.77;59.68;94667.75;5030870;28;20458;-65
2020/12/25 10:42:37;;;;;;;34.47;20.63;;;;;;;10.94;60.30;94663.03;5031567;28;20455;-62
2020/12/25 10:45:04;;;;;;;33.37;20.33;;;;;;;11.05;59.54;94668.03;5030777;28;20447;-62
2020/12/25 10:47:31;;;;;;;30.33;19.20;;;;;;;11.16;58.25;94666.19;5031509;28;20436;-64
2020/12/25 10:49:58;;;;;;;31.03;19.97;;;;;;;11.16;61.17;94638.13;5030528;28;20451;-64
2020/12/25 10:52:24;;;;;;;28.67;18.00;;;;;;;11.24;59.49;94629.69;5031815;28;20820;-62
2020/12/25 10:54:50;;;;;;;29.33;18.87;;;;;;;11.32;59.30;94627.59;5046498;28;20555;-63
2020/12/25 10:57:17;;;;;;;28.07;17.90;;;;;;;11.58;58.61;94634.34;5050440;28;20918;-65
2020/12/25 10:59:44;;;;;;;28.43;17.80;;;;;;;11.77;56.89;94640.63;5049622;28;20822;-64
2020/12/25 11:02:11;;;;;;;27.37;16.87;;;;;;;11.77;56.89;94641.38;5049969;28;20451;-64
2020/12/25 11:04:38;;;;;;;26.97;17.90;;;;;;;11.84;56.56;94635.88;5049581;28;20446;-65
2020/12/25 11:07:05;;;;;;;27.60;17.83;;;;;;;11.99;55.98;94622.66;5049925;28;21085;-64
2020/12/25 11:09:31;;;;;;;23.90;16.60;;;;;;;12.14;55.74;94619.97;5030013;28;20478;-64
2020/12/25 11:11:57;;;;;;;34.40;20.73;;;;;;;12.15;55.29;94626.78;5030103;28;20447;-63
2020/12/25 11:14:24;;;;;;;40.43;25.10;;;;;;;12.24;54.65;94620.69;5030521;28;20503;-65
2020/12/25 11:16:52;;;;;;;42.37;26.27;;;;;;;12.12;54.71;94614.19;5031109;28;20513;-65
2020/12/25 11:19:20;;;;;;;46.63;27.27;;;;;;;12.42;54.12;94613.22;5037535;28;20516;-66
2020/12/25 11:21:46;;;;;;;39.73;24.37;;;;;;;12.51;54.34;94619.47;5050507;28;20426;-65
2020/12/25 11:24:13;;;;;;;45.03;24.03;;;;;;;12.67;53.68;94608.56;5050518;28;20760;-64
2020/12/25 11:26:39;;;;;;;34.63;22.87;;;;;;;12.84;53.24;94598.47;5050262;28;20526;-66
2020/12/25 11:29:08;;;;;;;36.40;23.30;;;;;;;12.98;52.74;94588.06;5050473;28;20446;-65